createdAt,value
2022-11-28T00:01:23.158Z,101565.09
2022-11-28T00:03:50.135Z,101571.22
2022-11-28T00:06:17.716Z,101574.91
2022-11-28T00:08:45.239Z,101575.66
2022-11-28T00:11:14.277Z,101574.72
2022-11-28T00:13:41.830Z,101580.97
2022-11-28T00:16:10.027Z,101574.78
2022-11-28T00:18:36.987Z,101582.75
2022-11-28T00:21:06.794Z,101585.41
2022-11-28T00:23:34.032Z,101566.03
2022-11-28T00:26:06.361Z,101578.38
2022-11-28T00:28:33.310Z,101575.72
2022-11-28T00:31:00.522Z,101579.13
2022-11-28T00:33:27.676Z,101585.41
2022-11-28T00:36:02.308Z,101588.00
2022-11-28T00:38:29.202Z,101587.94
2022-11-28T00:41:07.576Z,101587.94
2022-11-28T00:43:34.704Z,101563.28
2022-11-28T00:46:02.755Z,101581.75
2022-11-28T00:48:30.162Z,101574.66
2022-11-28T00:51:09.006Z,101572.94
2022-11-28T00:53:36.350Z,101581.81
2022-11-28T00:56:07.270Z,101570.47
2022-11-28T00:58:35.503Z,101579.22
2022-11-28T01:01:15.821Z,101581.94
2022-11-28T01:03:43.005Z,101591.88
2022-11-28T01:06:10.691Z,101587.34
2022-11-28T01:08:38.042Z,101585.47
2022-11-28T01:11:11.149Z,101584.69
2022-11-28T01:13:38.115Z,101582.06
2022-11-28T01:16:05.202Z,101570.53
2022-11-28T01:18:32.145Z,101573.13
2022-11-28T01:20:58.930Z,101568.81
2022-11-28T01:23:25.741Z,101576.78
2022-11-28T01:25:52.545Z,101581.94
2022-11-28T01:28:19.751Z,101579.22
2022-11-28T01:30:46.688Z,101575.53
2022-11-28T01:33:13.584Z,101573.97
2022-11-28T01:35:40.444Z,101568.56
2022-11-28T01:38:07.440Z,101565.09
2022-11-28T01:40:34.331Z,101564.97
2022-11-28T01:43:01.259Z,101563.25
2022-11-28T01:45:32.610Z,101557.97
2022-11-28T01:48:02.528Z,101542.72
2022-11-28T01:50:31.750Z,101546.25
2022-11-28T01:53:02.166Z,101536.38
2022-11-28T01:55:32.497Z,101530.12
2022-11-28T01:57:59.654Z,101530.09
2022-11-28T02:00:26.643Z,101527.38
2022-11-28T02:03:00.970Z,101526.53
2022-11-28T02:05:27.798Z,101530.19
2022-11-28T02:07:54.753Z,101519.69
2022-11-28T02:10:30.961Z,101520.53
2022-11-28T02:13:16.331Z,101524.13
2022-11-28T02:16:14.009Z,101510.81
2022-11-28T02:19:02.013Z,101506.41
2022-11-28T02:21:58.479Z,101509.34
2022-11-28T02:24:40.073Z,101511.00
2022-11-28T02:27:32.692Z,101505.81
2022-11-28T02:30:06.602Z,101502.28
2022-11-28T02:32:42.861Z,101504.94
2022-11-28T02:35:23.696Z,101503.97
2022-11-28T02:38:10.015Z,101502.28
2022-11-28T02:40:46.352Z,101496.06
2022-11-28T02:43:25.151Z,101498.97
2022-11-28T02:46:10.553Z,101491.75
2022-11-28T02:48:52.059Z,101495.31
2022-11-28T02:51:24.833Z,101496.97
2022-11-28T02:53:52.201Z,101490.75
2022-11-28T02:56:19.461Z,101481.84
2022-11-28T02:58:46.311Z,101480.13
2022-11-28T03:01:20.157Z,101487.09
2022-11-28T03:04:07.722Z,101491.53
2022-11-28T03:07:00.124Z,101480.94
2022-11-28T03:09:51.928Z,101480.91
2022-11-28T03:12:40.330Z,101486.16
2022-11-28T03:15:09.552Z,101484.37
2022-11-28T03:18:02.234Z,101483.44
2022-11-28T03:20:39.454Z,101478.00
2022-11-28T03:23:14.057Z,101477.06
2022-11-28T03:25:56.427Z,101472.81
2022-11-28T03:28:36.201Z,101471.97
2022-11-28T03:31:35.737Z,101467.63
2022-11-28T03:34:04.947Z,101455.69
2022-11-28T03:36:34.897Z,101451.94
2022-11-28T03:39:32.885Z,101454.78
2022-11-28T03:42:19.816Z,101442.28
2022-11-28T03:45:03.869Z,101426.50
2022-11-28T03:47:35.393Z,101435.19
2022-11-28T03:50:07.020Z,101429.28
2022-11-28T03:52:38.252Z,101425.75
2022-11-28T03:55:18.762Z,101418.75
2022-11-28T03:57:54.985Z,101415.22
2022-11-28T04:00:22.516Z,101411.66
2022-11-28T04:03:02.918Z,101411.84
2022-11-28T04:05:29.851Z,101415.34
2022-11-28T04:08:01.610Z,101415.34
2022-11-28T04:10:43.379Z,101415.63
2022-11-28T04:13:22.778Z,101420.22
2022-11-28T04:16:08.049Z,101411.47
2022-11-28T04:18:43.436Z,101416.84
2022-11-28T04:21:30.625Z,101408.84
2022-11-28T04:24:03.059Z,101413.16
2022-11-28T04:26:38.977Z,101413.06
2022-11-28T04:29:10.273Z,101403.25
2022-11-28T04:31:38.534Z,101403.22
2022-11-28T04:34:08.962Z,101411.09
2022-11-28T04:36:38.705Z,101404.00
2022-11-28T04:39:16.419Z,101393.50
2022-11-28T04:42:32.846Z,101404.81
2022-11-28T04:45:12.342Z,101405.66
2022-11-28T04:47:39.235Z,101408.31
2022-11-28T04:50:06.732Z,101409.25
2022-11-28T04:52:51.752Z,101399.50
2022-11-28T04:55:41.169Z,101394.19
2022-11-28T04:58:11.303Z,101405.78
2022-11-28T05:00:39.072Z,101396.00
2022-11-28T05:03:06.480Z,101398.63
2022-11-28T05:05:42.639Z,101397.72
2022-11-28T05:08:09.791Z,101398.63
2022-11-28T05:10:36.679Z,101398.69
2022-11-28T05:13:03.859Z,101395.06
2022-11-28T05:15:30.807Z,101401.22
2022-11-28T05:17:57.719Z,101401.22
2022-11-28T05:20:25.112Z,101397.78
2022-11-28T05:22:51.925Z,101400.63
2022-11-28T05:25:18.730Z,101402.28
2022-11-28T05:27:48.166Z,101405.78
2022-11-28T05:30:15.389Z,101402.22
2022-11-28T05:32:42.614Z,101409.19
2022-11-28T05:35:09.702Z,101418.00
2022-11-28T05:37:37.056Z,101416.22
2022-11-28T05:40:05.467Z,101416.16
2022-11-28T05:42:33.520Z,101417.03
2022-11-28T05:45:00.370Z,101425.00
2022-11-28T05:47:27.179Z,101421.41
2022-11-28T05:49:56.100Z,101422.28
2022-11-28T05:52:23.128Z,101427.56
2022-11-28T05:54:49.954Z,101430.19
2022-11-28T05:57:16.889Z,101436.50
2022-11-28T05:59:45.660Z,101432.88
2022-11-28T06:02:12.827Z,101435.50
2022-11-28T06:04:41.980Z,101435.44
2022-11-28T06:07:09.060Z,101433.66
2022-11-28T06:09:36.292Z,101427.44
2022-11-28T06:12:03.231Z,101418.56
2022-11-28T06:14:30.039Z,101429.16
2022-11-28T06:16:57.168Z,101425.62
2022-11-28T06:19:24.068Z,101424.72
2022-11-28T06:21:50.981Z,101426.50
2022-11-28T06:24:17.831Z,101421.22
2022-11-28T06:26:44.622Z,101413.19
2022-11-28T06:29:11.515Z,101428.28
2022-11-28T06:31:38.429Z,101421.31
2022-11-28T06:34:05.277Z,101419.47
2022-11-28T06:36:32.143Z,101430.94
2022-11-28T06:38:59.110Z,101427.47
2022-11-28T06:41:26.081Z,101435.47
2022-11-28T06:43:52.845Z,101429.31
2022-11-28T06:46:21.368Z,101433.72
2022-11-28T06:48:50.655Z,101430.41
2022-11-28T06:51:18.278Z,101442.75
2022-11-28T06:53:45.117Z,101449.84
2022-11-28T06:56:17.215Z,101439.34
2022-11-28T06:58:44.329Z,101444.63
2022-11-28T07:01:19.661Z,101443.75
2022-11-28T07:03:46.876Z,101440.22
2022-11-28T07:06:15.082Z,101441.03
2022-11-28T07:08:42.579Z,101432.94
2022-11-28T07:11:16.527Z,101430.34
2022-11-28T07:13:47.877Z,101436.50
2022-11-28T07:16:23.362Z,101442.56
2022-11-28T07:18:50.680Z,101437.25
2022-11-28T07:21:17.849Z,101438.03
2022-11-28T07:23:45.128Z,101437.91
2022-11-28T07:26:13.849Z,101436.97
2022-11-28T07:28:41.454Z,101434.19
2022-11-28T07:31:13.492Z,101426.22
2022-11-28T07:33:42.312Z,101437.53
2022-11-28T07:36:17.925Z,101430.13
2022-11-28T07:38:52.607Z,101433.53
2022-11-28T07:41:24.936Z,101437.16
2022-11-28T07:43:57.149Z,101423.87
2022-11-28T07:46:24.747Z,101432.50
2022-11-28T07:48:52.082Z,101415.78
2022-11-28T07:51:21.776Z,101425.31
2022-11-28T07:53:49.090Z,101421.84
2022-11-28T07:56:19.295Z,101420.25
2022-11-28T07:58:46.846Z,101419.28
2022-11-28T08:01:15.011Z,101424.50
2022-11-28T08:03:42.521Z,101415.69
2022-11-28T08:06:09.392Z,101415.56
2022-11-28T08:08:36.448Z,101407.44
2022-11-28T08:11:05.896Z,101415.41
2022-11-28T08:13:33.105Z,101417.09
2022-11-28T08:16:07.669Z,101414.31
2022-11-28T08:18:38.164Z,101414.41
2022-11-28T08:21:13.591Z,101403.66
2022-11-28T08:23:40.569Z,101404.69
2022-11-28T08:26:11.689Z,101402.91
2022-11-28T08:28:38.568Z,101396.63
2022-11-28T08:31:17.262Z,101404.47
2022-11-28T08:33:45.561Z,101413.97
2022-11-28T08:36:14.459Z,101400.69
2022-11-28T08:38:47.044Z,101407.13
2022-11-28T08:41:22.478Z,101413.03
2022-11-28T08:43:50.772Z,101412.03
2022-11-28T08:46:20.462Z,101414.78
2022-11-28T08:48:49.382Z,101409.38
2022-11-28T08:51:19.334Z,101413.66
2022-11-28T08:53:49.319Z,101404.91
2022-11-28T08:56:16.475Z,101412.66
2022-11-28T08:58:43.609Z,101407.19
2022-11-28T09:01:36.818Z,101410.59
2022-11-28T09:04:04.277Z,101399.94
2022-11-28T09:06:31.179Z,101399.87
2022-11-28T09:08:58.195Z,101404.28
2022-11-28T09:11:25.294Z,101406.91
2022-11-28T09:13:52.160Z,101400.66
2022-11-28T09:16:19.937Z,101400.44
2022-11-28T09:18:46.873Z,101383.59
2022-11-28T09:21:15.275Z,101389.69
2022-11-28T09:23:44.040Z,101392.63
2022-11-28T09:26:16.322Z,101383.16
2022-11-28T09:28:43.611Z,101383.34
2022-11-28T09:31:12.423Z,101385.87
2022-11-28T09:33:39.522Z,101387.94
2022-11-28T09:36:14.336Z,101383.31
2022-11-28T09:38:41.304Z,101370.34
2022-11-28T09:41:28.277Z,101376.59
2022-11-28T09:44:01.282Z,101379.19
2022-11-28T09:46:32.860Z,101373.78
2022-11-28T09:49:03.692Z,101377.41
2022-11-28T09:51:55.459Z,101375.50
2022-11-28T09:55:00.659Z,101365.66
2022-11-28T09:57:40.576Z,101355.03
2022-11-28T10:00:32.082Z,101357.84
2022-11-28T10:03:23.845Z,101357.66
2022-11-28T10:06:15.065Z,101344.47
2022-11-28T10:09:02.981Z,101348.94
2022-11-28T10:12:03.310Z,101350.69
2022-11-28T10:15:07.907Z,101338.53
2022-11-28T10:17:40.056Z,101332.00
2022-11-28T10:20:14.753Z,101323.19
2022-11-28T10:22:50.903Z,101320.47
2022-11-28T10:25:26.984Z,101321.16
2022-11-28T10:27:55.382Z,101302.91
2022-11-28T10:30:27.075Z,101305.50
2022-11-28T10:32:57.601Z,101296.78
2022-11-28T10:35:47.804Z,101278.25
2022-11-28T10:38:16.068Z,101290.34
2022-11-28T10:41:11.443Z,101290.50
2022-11-28T10:44:05.921Z,101294.13
2022-11-28T10:47:18.909Z,101298.56
2022-11-28T10:50:10.746Z,101285.34
2022-11-28T10:52:59.389Z,101284.53
2022-11-28T10:55:47.842Z,101269.50
2022-11-28T10:58:17.846Z,101275.38
2022-11-28T11:00:45.551Z,101272.69
2022-11-28T11:03:14.825Z,101275.19
2022-11-28T11:05:42.522Z,101257.56
2022-11-28T11:08:24.237Z,101262.03
2022-11-28T11:10:58.206Z,101277.81
2022-11-28T11:13:28.395Z,101271.56
2022-11-28T11:16:07.118Z,101275.41
2022-11-28T11:18:51.585Z,101270.84
2022-11-28T11:21:23.534Z,101265.56
2022-11-28T11:24:11.996Z,101276.97
2022-11-28T11:26:41.918Z,101263.19
2022-11-28T11:29:21.315Z,101263.09
2022-11-28T11:31:52.087Z,101247.59
2022-11-28T11:34:21.415Z,101261.44
2022-11-28T11:36:48.355Z,101260.50
2022-11-28T11:39:23.478Z,101262.41
2022-11-28T11:42:11.396Z,101260.44
2022-11-28T11:44:38.346Z,101258.78
2022-11-28T11:47:08.166Z,101255.31
2022-11-28T11:49:46.453Z,101249.09
2022-11-28T11:52:13.339Z,101249.09
2022-11-28T11:54:52.420Z,101250.13
2022-11-28T11:57:36.919Z,101253.53
2022-11-28T12:00:26.660Z,101245.50
2022-11-28T12:02:58.982Z,101256.31
2022-11-28T12:05:46.365Z,101255.38
2022-11-28T12:08:37.190Z,101261.53
2022-11-28T12:11:25.210Z,101258.03
2022-11-28T12:13:52.373Z,101250.91
2022-11-28T12:16:34.371Z,101261.53
2022-11-28T12:19:16.565Z,101260.63
2022-11-28T12:21:57.023Z,101259.84
2022-11-28T12:24:52.452Z,101261.53
2022-11-28T12:27:31.058Z,101265.13
2022-11-28T12:30:21.884Z,101233.87
2022-11-28T12:32:57.886Z,101273.28
2022-11-28T12:35:31.238Z,101266.25
2022-11-28T12:38:33.820Z,101261.97
2022-11-28T12:41:06.613Z,101256.66
2022-11-28T12:44:06.571Z,101249.47
2022-11-28T12:46:59.784Z,101242.53
2022-11-28T12:49:36.034Z,101241.66
2022-11-28T12:52:23.170Z,101233.63
2022-11-28T12:54:59.899Z,101231.81
2022-11-28T12:58:07.034Z,101237.00
2022-11-28T13:00:34.595Z,101236.87
2022-11-28T13:03:34.505Z,101241.28
2022-11-28T13:06:19.724Z,101232.38
2022-11-28T13:09:30.172Z,101233.41
2022-11-28T13:12:22.355Z,101232.47
2022-11-28T13:14:57.640Z,101227.16
2022-11-28T13:17:32.306Z,101236.94
2022-11-28T13:20:17.210Z,101234.28
2022-11-28T13:23:06.258Z,101216.81
2022-11-28T13:25:45.236Z,101216.91
2022-11-28T13:28:33.989Z,101215.78
2022-11-28T13:31:08.846Z,101218.44
2022-11-28T13:33:55.973Z,101215.84
2022-11-28T13:39:53.943Z,101210.63
2022-11-28T13:42:59.767Z,101211.56
2022-11-28T13:45:32.463Z,101209.87
2022-11-28T13:48:00.947Z,101213.34
2022-11-28T13:50:36.456Z,101215.56
2022-11-28T13:53:12.626Z,101207.38
2022-11-28T13:55:47.151Z,101207.56
2022-11-28T13:58:29.389Z,101204.78
2022-11-28T14:01:08.050Z,101208.50
2022-11-28T14:03:46.247Z,101211.22
2022-11-28T14:06:17.072Z,101215.75
2022-11-28T14:08:45.172Z,101207.78
2022-11-28T14:11:37.054Z,101207.78
2022-11-28T14:14:29.018Z,101201.56
2022-11-28T14:17:01.746Z,101216.69
2022-11-28T14:19:51.559Z,101212.41
2022-11-28T14:22:27.732Z,101212.50
2022-11-28T14:25:02.052Z,101210.81
2022-11-28T14:27:34.012Z,101221.56
2022-11-28T14:30:01.631Z,101223.44
2022-11-28T14:32:40.743Z,101217.28
2022-11-28T14:35:16.800Z,101223.44
2022-11-28T14:37:52.890Z,101226.09
2022-11-28T14:40:57.218Z,101223.37
2022-11-28T14:43:24.001Z,101222.59
2022-11-28T14:45:52.334Z,101215.47
2022-11-28T14:48:22.365Z,101218.03
2022-11-28T14:50:52.542Z,101223.25
2022-11-28T14:53:44.656Z,101228.50
2022-11-28T14:56:23.219Z,101229.47
2022-11-28T14:58:51.468Z,101225.34
2022-11-28T15:01:27.913Z,101222.75
2022-11-28T15:04:08.674Z,101221.94
2022-11-28T15:06:37.004Z,101218.38
2022-11-28T15:09:27.946Z,101226.25
2022-11-28T15:12:04.102Z,101226.25
2022-11-28T15:14:32.389Z,101228.12
2022-11-28T15:17:05.200Z,101231.78
2022-11-28T15:19:38.747Z,101229.91
2022-11-28T15:22:05.819Z,101231.81
2022-11-28T15:24:37.787Z,101237.94
2022-11-28T15:27:07.761Z,101235.25
2022-11-28T15:29:36.259Z,101235.34
2022-11-28T15:32:04.760Z,101243.28
2022-11-28T15:34:33.087Z,101226.56
2022-11-28T15:37:02.375Z,101237.91
2022-11-28T15:39:31.180Z,101237.94
2022-11-28T15:42:00.545Z,101235.28
2022-11-28T15:44:27.827Z,101238.84
2022-11-28T15:46:55.198Z,101238.88
2022-11-28T15:49:33.442Z,101238.97
2022-11-28T15:52:03.306Z,101242.47
2022-11-28T15:54:36.090Z,101242.47
2022-11-28T15:57:03.828Z,101251.41
2022-11-28T15:59:31.149Z,101249.69
2022-11-28T16:02:04.035Z,101260.28
2022-11-28T16:04:31.121Z,101250.59
2022-11-28T16:06:59.260Z,101241.78
2022-11-28T16:09:32.621Z,101240.13
2022-11-28T16:11:59.920Z,101238.41
2022-11-28T16:14:36.592Z,101252.62
2022-11-28T16:17:13.515Z,101244.75
2022-11-28T16:19:43.063Z,101249.25
2022-11-28T16:22:11.857Z,101235.41
2022-11-28T16:24:55.376Z,101249.56
2022-11-28T16:27:44.342Z,101252.41
2022-11-28T16:30:38.450Z,101249.03
2022-11-28T16:33:35.723Z,101245.59
2022-11-28T16:36:17.822Z,101253.59
2022-11-28T16:38:49.809Z,101250.03
2022-11-28T16:41:26.353Z,101254.56
2022-11-28T16:43:56.578Z,101238.91
2022-11-28T16:46:33.324Z,101239.88
2022-11-28T16:49:01.009Z,101259.09
2022-11-28T16:51:36.080Z,101249.44
2022-11-28T16:54:23.771Z,101260.69
2022-11-28T16:56:57.516Z,101259.72
2022-11-28T16:59:25.901Z,101257.06
2022-11-28T17:01:54.217Z,101245.72
2022-11-28T17:04:28.705Z,101267.59
2022-11-28T17:06:57.981Z,101270.31
2022-11-28T17:09:25.075Z,101266.81
2022-11-28T17:12:04.027Z,101281.78
2022-11-28T17:14:30.991Z,101273.03
2022-11-28T17:16:57.967Z,101274.91
2022-11-28T17:19:25.761Z,101278.47
2022-11-28T17:21:56.028Z,101274.88
2022-11-28T17:24:29.039Z,101277.69
2022-11-28T17:26:56.204Z,101282.00
2022-11-28T17:29:25.332Z,101286.44
2022-11-28T17:31:55.153Z,101282.19
2022-11-28T17:34:27.626Z,101276.88
2022-11-28T17:36:55.054Z,101290.19
2022-11-28T17:39:22.663Z,101282.38
2022-11-28T17:41:50.133Z,101283.38
2022-11-28T17:44:23.175Z,101278.94
2022-11-28T17:46:51.670Z,101264.13
2022-11-28T17:49:19.424Z,101279.09
2022-11-28T17:51:46.442Z,101278.19
2022-11-28T17:54:16.367Z,101277.37
2022-11-28T17:56:45.437Z,101280.91
2022-11-28T17:59:13.835Z,101277.41
2022-11-28T18:01:41.184Z,101285.38
2022-11-28T18:04:09.493Z,101280.94
2022-11-28T18:06:36.881Z,101282.00
2022-11-28T18:09:11.667Z,101269.69
2022-11-28T18:11:40.399Z,101284.87
2022-11-28T18:14:09.286Z,101272.38
2022-11-28T18:16:36.428Z,101283.94
2022-11-28T18:19:04.366Z,101281.19
2022-11-28T18:21:32.204Z,101280.56
2022-11-28T18:23:59.257Z,101276.00
2022-11-28T18:26:27.899Z,101277.84
2022-11-28T18:28:55.880Z,101277.84
2022-11-28T18:31:28.589Z,101277.28
2022-11-28T18:34:00.416Z,101292.22
2022-11-28T18:36:30.705Z,101290.66
2022-11-28T18:39:03.659Z,101294.09
2022-11-28T18:41:31.127Z,101280.13
2022-11-28T18:43:59.945Z,101302.09
2022-11-28T18:46:35.023Z,101295.06
2022-11-28T18:49:03.279Z,101302.03
2022-11-28T18:51:32.691Z,101290.63
2022-11-28T18:53:59.766Z,101295.03
2022-11-28T18:56:27.291Z,101295.09
2022-11-28T18:58:56.945Z,101294.13
2022-11-28T19:01:30.463Z,101299.38
2022-11-28T19:04:00.819Z,101297.66
2022-11-28T19:06:27.956Z,101303.00
2022-11-28T19:08:57.696Z,101287.16
2022-11-28T19:11:25.479Z,101298.47
2022-11-28T19:13:53.626Z,101299.34
2022-11-28T19:16:23.631Z,101297.53
2022-11-28T19:18:51.210Z,101296.62
2022-11-28T19:21:22.296Z,101297.63
2022-11-28T19:23:50.318Z,101297.59
2022-11-28T19:26:20.542Z,101286.03
2022-11-28T19:28:48.075Z,101295.75
2022-11-28T19:31:35.122Z,101280.91
2022-11-28T19:34:02.944Z,101284.53
2022-11-28T19:36:31.825Z,101282.88
2022-11-28T19:39:00.206Z,101286.41
2022-11-28T19:41:28.097Z,101283.84
2022-11-28T19:43:55.334Z,101284.81
2022-11-28T19:46:22.735Z,101283.06
2022-11-28T19:48:51.807Z,101291.09
2022-11-28T19:51:20.496Z,101283.03
2022-11-28T19:53:47.550Z,101285.56
2022-11-28T19:56:17.710Z,101288.28
2022-11-28T19:58:45.637Z,101285.03
2022-11-28T20:01:23.987Z,101295.47
2022-11-28T20:03:52.115Z,101286.62
2022-11-28T20:06:24.441Z,101293.59
2022-11-28T20:08:53.246Z,101289.16
2022-11-28T20:11:23.040Z,101295.38
2022-11-28T20:13:56.074Z,101284.78
2022-11-28T20:16:23.367Z,101293.50
2022-11-28T20:18:51.878Z,101290.78
2022-11-28T20:21:20.247Z,101288.03
2022-11-28T20:23:55.694Z,101285.44
2022-11-28T20:26:26.247Z,101286.19
2022-11-28T20:28:56.327Z,101283.44
2022-11-28T20:31:30.707Z,101288.63
2022-11-28T20:33:58.555Z,101285.06
2022-11-28T20:36:27.684Z,101283.25
2022-11-28T20:38:55.604Z,101269.12
2022-11-28T20:41:24.611Z,101280.44
2022-11-28T20:43:52.011Z,101286.59
2022-11-28T20:46:27.289Z,101281.25
2022-11-28T20:48:54.913Z,101283.91
2022-11-28T20:51:24.906Z,101283.09
2022-11-28T20:53:52.856Z,101282.97
2022-11-28T20:56:25.207Z,101284.72
2022-11-28T20:58:52.589Z,101296.22
2022-11-28T21:01:22.602Z,101297.91
2022-11-28T21:03:50.515Z,101296.97
2022-11-28T21:06:18.171Z,101304.97
2022-11-28T21:08:45.623Z,101301.41
2022-11-28T21:11:36.506Z,101309.31
2022-11-28T21:14:04.970Z,101307.63
2022-11-28T21:16:33.249Z,101312.06
2022-11-28T21:19:05.677Z,101313.22
2022-11-28T21:21:33.509Z,101304.50
2022-11-28T21:24:07.342Z,101312.47
2022-11-28T21:26:40.500Z,101310.66
2022-11-28T21:29:11.259Z,101311.53
2022-11-28T21:31:41.914Z,101303.59
2022-11-28T21:34:15.385Z,101312.44
2022-11-28T21:36:42.700Z,101306.31
2022-11-28T21:39:18.903Z,101301.09
2022-11-28T21:41:46.390Z,101300.28
2022-11-28T21:44:13.263Z,101304.72
2022-11-28T21:46:40.254Z,101305.53
2022-11-28T21:49:07.142Z,101300.25
2022-11-28T21:51:33.968Z,101300.28
2022-11-28T21:54:02.083Z,101303.81
2022-11-28T21:56:28.895Z,101295.97
2022-11-28T21:58:56.016Z,101303.00
2022-11-28T22:01:22.879Z,101310.84
2022-11-28T22:03:49.977Z,101302.94
2022-11-28T22:06:22.447Z,101304.56
2022-11-28T22:08:49.885Z,101309.81
2022-11-28T22:11:17.101Z,101296.72
2022-11-28T22:13:47.262Z,101301.94
2022-11-28T22:16:18.962Z,101309.31
2022-11-28T22:18:47.322Z,101299.38
2022-11-28T22:24:04.674Z,101298.47
2022-11-28T22:26:31.704Z,101287.84
2022-11-28T22:29:03.911Z,101301.00
2022-11-28T22:31:30.999Z,101293.00
2022-11-28T22:33:57.986Z,101300.09
2022-11-28T22:36:24.838Z,101302.63
2022-11-28T22:38:55.900Z,101306.97
2022-11-28T22:41:28.457Z,101299.09
2022-11-28T22:43:59.503Z,101291.19
2022-11-28T22:46:26.491Z,101287.53
2022-11-28T22:48:53.568Z,101294.84
2022-11-28T22:51:23.478Z,101292.25
2022-11-28T22:53:58.115Z,101285.84
2022-11-28T22:56:24.966Z,101296.34
2022-11-28T22:58:51.869Z,101294.56
2022-11-28T23:01:24.348Z,101291.00
2022-11-28T23:03:51.641Z,101297.09
2022-11-28T23:06:20.715Z,101284.03
2022-11-28T23:08:48.273Z,101289.16
2022-11-28T23:11:21.468Z,101287.34
2022-11-28T23:13:49.777Z,101289.94
2022-11-28T23:16:16.698Z,101289.94
2022-11-28T23:18:44.539Z,101286.34
2022-11-28T23:21:14.068Z,101282.88
2022-11-28T23:23:41.006Z,101278.63
2022-11-28T23:26:10.688Z,101290.87
2022-11-28T23:28:37.964Z,101284.69
2022-11-28T23:31:14.335Z,101291.16
2022-11-28T23:33:41.474Z,101286.03
2022-11-28T23:36:15.506Z,101278.72
2022-11-28T23:38:43.282Z,101292.03
2022-11-28T23:41:11.354Z,101287.53
2022-11-28T23:43:38.354Z,101281.53
2022-11-28T23:46:06.139Z,101286.19
2022-11-28T23:48:33.426Z,101285.59
2022-11-28T23:51:00.466Z,101285.53
2022-11-28T23:53:27.403Z,101285.59
2022-11-28T23:55:54.295Z,101287.53
2022-11-28T23:58:21.113Z,101283.97
